Tropical Cyclones
[Index]
Main Index Home Page Stock Weather Photos Extreme Storms Discussion Storm News and Storm Chasing Reports Tropical Cyclones / Hurricanes / Typhoons Weather Data and Links Wild Fires / Bushfires Weather Observation Techniques Weather Picture Catalogue Tornado Pictures and Reports Stock Video Footage and DVDs for sale
Season 1996-1997 Tropical Cyclone ILETTA Track Map
Season 1996-1997 Summaries: [BoM-AU] [JTWC-AU] [JTWC-SIO] [JTWC-SPAC] [JTWC-SH]
<<- Previous TC | JTWC 1996-1997 Season | Next TC ->>

click for intensity scale information  Lat/long Grid: Show Hide

 Date Labels: Show Hide

Joint Typhoon Warning Centre Cyclone Data

Name: ILETTA

17 Jan 1997 18:00 UTC to 30 Jan 1997 00:00 UTC

    date/time    lat    long     hPa   cat  kts
1997-01-17 18    9.9    74.0                  25          
1997-01-18 00   10.0    73.8                  25          
1997-01-18 06   10.1    73.5                  25          
1997-01-18 12   10.2    73.3                  25          
1997-01-18 18   10.3    73.1                  25          
1997-01-19 00   10.4    72.9                  25          
1997-01-19 06   10.5    72.8                  25          
1997-01-19 12   10.6    72.7                  25          
1997-01-19 18   10.7    72.5                  25          
1997-01-20 00   10.8    72.4                  25          
1997-01-20 06   10.8    72.2                  25          
1997-01-20 12   10.8    72.0                  25          
1997-01-20 18   10.8    71.8                  25          
1997-01-21 00   10.8    71.6                  15          
1997-01-21 06   10.8    71.4                  20          
1997-01-21 12   10.8    71.2                  20          
1997-01-21 18   10.8    71.0                  20          
1997-01-22 00   10.8    70.8                  20          
1997-01-22 06   10.9    70.5                  25          
1997-01-22 12   10.9    70.3                  25          
1997-01-22 18   11.0    70.0                  25          
1997-01-23 00   11.0    69.8                  30          
1997-01-23 06   11.0    69.5                  30          
1997-01-23 12   11.1    69.1                  35          
1997-01-23 18   11.2    68.8                  35          
1997-01-24 00   11.4    68.5                  35          
1997-01-24 06   11.6    68.2                  35          
1997-01-24 12   11.8    68.0            1     40          
1997-01-24 18   12.0    67.8            1     45          
1997-01-25 00   12.4    67.8            1     50          
1997-01-25 06   12.7    68.1            2     55          
1997-01-25 12   13.0    68.4            2     55          
1997-01-25 18   13.3    68.6            2     55          
1997-01-26 00   13.9    69.0            2     55          
1997-01-26 06   14.4    69.4            2     60          
1997-01-26 12   15.0    69.9            2     65          
1997-01-26 18   15.7    70.3            2     70          
1997-01-27 00   16.4    70.6            3     75          
1997-01-27 06   16.8    70.8            2     70          
1997-01-27 12   17.0    71.1            2     60          
1997-01-27 18   17.1    71.4            1     50          
1997-01-28 00   17.0    71.7            1     40          
1997-01-28 06   16.8    72.0                  30          
1997-01-28 12   16.6    72.1                  30          
1997-01-28 18   16.3    72.1                  30          
1997-01-29 00   16.0    71.9                  30          
1997-01-29 06   15.7    71.6                  30          
1997-01-29 12   15.4    71.3                  25          
1997-01-29 18   15.0    71.0                  25          
1997-01-30 00   14.4    70.5                  20          
Winds are 1-min average.

Tropical cyclone tracks developed by Michael Bath using data from the Joint Typhoon Warning Centre Best Tracks and Google Maps.


[Australian Severe Weather index] [Copyright Notice] [Email Contacts] [Search This Site] [Privacy Policy]
Document: tropical_cyclone_iletta.htm Updated: 18 September 2016